x

Portland 12 Nm Southeast Of Portland,me (44007) Wave Buoy

3:50am - Thu 18th Dec 2014 All times are EST. -5 hours from GMT.

  • Sig Wave height 3.3ft
  • Swell Direction
  • Peak Period 8s
  • Average Period 7s
  • Wind
    13mph, 18mph gusts
  • Sea Temp 44°f
  • 空気 Temp 40°f
  • Sea Pressure 1003.1mb
  • Portland 12 Nm Southeast Of Portland,me
  • Portland 12 Nm Southeast Of Portland,me

More Historic Weather Station data

Upgrade to MSW Pro to gain access to the past 30 days of data for over 8000 Wavebouys and Weather Stations around the globe.

Join Pro

Comparision Forecast

View Surf forecast
   
Thu 12/18 3:50am 3.5ft 8s 7s 13 18 mph 1003.1mb 44f 40f
2:50am 3.5ft 8s 7s 11 13 mph 1003.4mb 44f 40f
1:50am 4ft 8s 7s 4 7 mph 1003.8mb 45f 39f
12:50am 4.5ft 8s 7s 9 11 mph 1003.8mb 45f 39f
Wed 12/17 11:50pm 4.5ft 8s 6s 13 18 mph 1004mb 45f 39f
10:50pm 5ft 8s 6s 16 20 mph 1003.9mb 45f 39f
9:50pm 5ft 9s 6s 18 20 mph 1004mb 45f 39f
8:50pm 5ft 8s 6s 18 22 mph 1004mb 45f 39f
7:50pm 5ft 8s 6s 20 25 mph 1004mb 45f 40f
6:50pm 5ft 8s 5s 22 29 mph 1004.1mb 45f 40f
5:50pm 5ft 8s 5s 27 31 mph 1003.6mb 45f 40f
4:50pm 6ft 8s 6s 25 29 mph 1003.1mb 45f 41f
3:50pm 6ft 8s 5s 27 31 mph 1002.7mb 45f 41f
2:50pm 6ft 7s 5s 25 31 mph 1002.5mb 45f 41f
1:50pm 5.5ft 7s 5s 25 29 mph 1002mb 44f 41f
12:50pm 5.5ft 6s 5s 25 27 mph 1002.8mb 44f 41f
11:50am 5ft 6s 5s 20 25 mph 1004mb 44f 42f
10:50am 4.5ft 5s 4s 18 22 mph 1005.1mb 45f 43f
9:50am 4.5ft 6s 4s 20 25 mph 1006.2mb 45f 43f
8:50am 4ft 5s 4s 20 25 mph 1007.2mb 44f 42f
7:50am 4ft 5s 4s 20 22 mph 1008mb 44f 42f
6:50am 3.5ft 5s 4s 16 20 mph 1009mb 44f 43f
5:50am 3ft 4s 4s 13 18 mph 1009.9mb 44f 46f
4:50am 2.5ft 4s 4s 13 16 mph 1010.6mb 44f 46f
3:50am 2.5ft 11s 4s 13 16 mph 1011.5mb 43f 46f
2:50am 2.5ft 10s 4s 13 16 mph 1012.7mb 43f 44f
1:50am 2ft 9s 5s 16 18 mph 1013.2mb 43f 44f
12:50am 1.6ft 10s 5s 13 16 mph 1014.1mb 43f 43f
Tue 12/16 11:50pm 1.6ft 9s 6s 11
mph
1015mb 43f 41f
10:50pm 1.6ft 10s 7s 9 11 mph 1015.9mb 43f 40f
9:50pm 1.3ft 10s 6s 9
mph
1016.4mb 43f 40f
8:50pm 1.6ft 10s 6s 4 7 mph 1016.7mb 43f 40f
7:50pm 1.6ft 11s 6s 4 7 mph 1016.9mb 43f 39f
6:50pm 1.6ft 10s 6s 2
mph
1017.9mb 43f 39f
5:50pm 1.6ft 10s 6s  -  2 mph 1018.2mb 43f 38f
4:50pm 1.6ft 11s 6s 2 4 mph 1018.6mb 43f 38f
3:50pm 2ft 9s 6s 2 4 mph 1018.7mb 43f 38f
2:50pm 2ft 10s 6s 4 7 mph 1018.6mb 43f 38f
1:50pm 1.6ft 9s 6s 4 7 mph 1018.9mb 43f 37f
12:50pm 1.6ft 9s 6s 9
mph
1019.3mb 43f 37f
11:50am 1.6ft 10s 6s 9
mph
1019.9mb 43f 36f
10:50am 1.6ft 10s 6s 11 13 mph 1020.6mb 43f 37f
9:50am 1.6ft 10s 6s 11
mph
1021.2mb 43f 37f
8:50am 1.6ft 10s 5s 9
mph
1021.3mb 44f 37f
7:50am 1.6ft 11s 5s 9 11 mph 1020.9mb 44f 37f
6:50am 1.3ft 11s 4s 11
mph
1020.5mb 44f 37f
5:50am 1.6ft 11s 4s 11 13 mph 1020.2mb 44f 37f
4:50am 1.6ft 10s 4s 11 13 mph 1020.7mb 44f 37f
3:50am 1.6ft 11s 4s 11 13 mph 1020.6mb 43f 37f
2:50am 1.6ft 11s 4s 11 13 mph 1021mb 43f 38f
1:50am 1.6ft 8s 4s 9 11 mph 1021.3mb 43f 38f
12:50am 1.6ft 11s 4s 11 13 mph 1021.1mb 43f 37f
Mon 12/15 11:50pm 2ft 11s 5s 13 16 mph 1020.9mb 43f 36f
10:50pm 1.6ft 10s 5s 11 13 mph 1021.3mb 43f 37f
9:50pm 1.6ft 11s 4s 11 13 mph 1020.9mb 43f 37f
8:50pm 1.6ft 11s 5s 9 11 mph 1020.9mb 43f 38f
7:50pm 1.3ft 11s 5s 7 9 mph 1020.8mb 43f 38f
6:50pm 1.3ft 11s 6s 9 11 mph 1020mb 44f 38f
5:50pm 1.6ft 11s 6s 7 9 mph 1019.1mb 44f 38f
4:50pm 1.6ft 11s 6s 7 9 mph 1018.6mb 44f 38f
3:50pm 1.3ft 11s 6s 7 9 mph 1018.3mb 44f 38f
2:50pm 1.3ft 11s 6s 7 9 mph 1018mb 44f 37f
1:50pm 1.6ft 11s 6s 7 9 mph 1017.3mb 44f 36f
12:50pm 1.6ft 11s 6s 9 11 mph 1016.9mb 43f 36f
11:50am 1.6ft 11s 5s 9 11 mph 1017.1mb 43f 36f
10:50am 1.6ft 11s 5s 9
mph
1017mb 43f 35f
9:50am 1.6ft 11s 4s 9 11 mph 1016.8mb 43f 35f
8:50am 1.6ft 10s 5s 11 16 mph 1016.2mb 43f 35f
7:50am 1.6ft 11s 5s 13 18 mph 1015.2mb 43f 36f
6:50am 1.3ft 11s 7s 9 11 mph 1014.6mb 44f 34f
5:50am 1.3ft 11s 8s 9
mph
1013.7mb 44f 35f
4:50am 1.6ft 11s 8s 9 11 mph 1013.1mb 43f 34f
3:50am 2ft 12s 8s 7 9 mph 1012.5mb 43f 35f
2:50am 1.6ft 8s 7s 7 9 mph 1012.5mb 43f 35f
1:50am 2ft 12s 7s 7 9 mph 1012.2mb 44f 35f
12:50am 1.6ft 11s 7s 11 13 mph 1011.6mb 44f 35f
Sun 12/14 11:50pm 2ft 10s 7s 9 11 mph 1011.7mb 44f 36f
10:50pm 2ft 11s 7s 9 11 mph 1011.7mb 44f 37f
9:50pm 2.5ft 10s 6s 13 18 mph 1011.2mb 44f 38f
8:50pm 2ft 10s 4s 16 20 mph 1011.1mb 44f 38f
7:50pm 2ft 11s 4s 18 20 mph 1010.7mb 44f 39f
6:50pm 2ft 11s 5s 16 18 mph 1010.1mb 44f 40f
5:50pm 2ft 10s 6s 16 18 mph 1009.5mb 44f 42f
4:50pm 1.6ft 11s 6s 2 4 mph 1009.2mb 44f 42f
3:50pm 2ft 11s 6s 7
mph
1008.9mb 44f 42f
2:50pm 2ft 11s 6s 7 9 mph 1008.2mb 45f 43f
1:50pm 2ft 11s 6s 9 13 mph 1008.1mb 44f 42f
12:50pm 2.5ft 8s 6s 11 13 mph 1008.3mb 44f 41f
11:50am 2ft 12s 5s 9 11 mph 1008.3mb 44f 39f
10:50am 2.5ft 9s 5s 13 18 mph 1008.6mb 44f 38f